sensor_id;sensor_type;location;lat;lon;timestamp;temperature;humidity
26595;DHT22;14238;49.496;8.154;2023-02-28T00:00:01;-1.80;99.90
26595;DHT22;14238;49.496;8.154;2023-02-28T00:02:33;-1.80;99.90
26595;DHT22;14238;49.496;8.154;2023-02-28T00:04:59;-1.80;99.90
26595;DHT22;14238;49.496;8.154;2023-02-28T00:07:29;-1.70;99.90
26595;DHT22;14238;49.496;8.154;2023-02-28T00:09:55;-1.80;99.90
26595;DHT22;14238;49.496;8.154;2023-02-28T00:12:21;-1.70;99.90
26595;DHT22;14238;49.496;8.154;2023-02-28T00:14:46;-1.70;99.90
26595;DHT22;14238;49.496;8.154;2023-02-28T00:17:12;-1.60;99.90
26595;DHT22;14238;49.496;8.154;2023-02-28T00:19:37;-1.60;99.90
26595;DHT22;14238;49.496;8.154;2023-02-28T00:22:03;-1.60;99.90
26595;DHT22;14238;49.496;8.154;2023-02-28T00:24:28;-1.60;99.90
26595;DHT22;14238;49.496;8.154;2023-02-28T00:26:54;-1.60;99.90
26595;DHT22;14238;49.496;8.154;2023-02-28T00:29:19;-1.60;99.90
26595;DHT22;14238;49.496;8.154;2023-02-28T00:31:45;-1.60;99.90
26595;DHT22;14238;49.496;8.154;2023-02-28T00:34:11;-1.60;99.90
26595;DHT22;14238;49.496;8.154;2023-02-28T00:36:36;-1.60;99.90
26595;DHT22;14238;49.496;8.154;2023-02-28T00:39:02;-1.60;99.90
26595;DHT22;14238;49.496;8.154;2023-02-28T00:41:27;-1.60;99.90
26595;DHT22;14238;49.496;8.154;2023-02-28T00:43:53;-1.60;99.90
26595;DHT22;14238;49.496;8.154;2023-02-28T00:46:18;-1.60;99.90
26595;DHT22;14238;49.496;8.154;2023-02-28T00:48:44;-1.60;99.90
26595;DHT22;14238;49.496;8.154;2023-02-28T00:51:09;-1.60;99.90
26595;DHT22;14238;49.496;8.154;2023-02-28T00:53:35;-1.60;99.90
26595;DHT22;14238;49.496;8.154;2023-02-28T00:56:01;-1.60;99.90
26595;DHT22;14238;49.496;8.154;2023-02-28T00:58:27;-1.70;99.90
26595;DHT22;14238;49.496;8.154;2023-02-28T01:00:53;-1.70;99.90
26595;DHT22;14238;49.496;8.154;2023-02-28T01:03:19;-1.70;99.90
26595;DHT22;14238;49.496;8.154;2023-02-28T01:05:46;-1.80;99.90
26595;DHT22;14238;49.496;8.154;2023-02-28T01:08:12;-1.80;99.90
26595;DHT22;14238;49.496;8.154;2023-02-28T01:10:39;-1.90;99.90
26595;DHT22;14238;49.496;8.154;2023-02-28T01:13:04;-1.90;99.90
26595;DHT22;14238;49.496;8.154;2023-02-28T01:15:30;-1.90;99.90
26595;DHT22;14238;49.496;8.154;2023-02-28T01:17:57;-2.00;99.90
26595;DHT22;14238;49.496;8.154;2023-02-28T01:20:23;-2.00;99.90
26595;DHT22;14238;49.496;8.154;2023-02-28T01:22:48;-2.00;99.90
26595;DHT22;14238;49.496;8.154;2023-02-28T01:25:14;-2.00;99.90
26595;DHT22;14238;49.496;8.154;2023-02-28T01:27:40;-2.10;99.90
26595;DHT22;14238;49.496;8.154;2023-02-28T01:30:07;-2.10;99.90
26595;DHT22;14238;49.496;8.154;2023-02-28T01:32:33;-2.10;99.90
26595;DHT22;14238;49.496;8.154;2023-02-28T01:34:58;-2.10;99.90
26595;DHT22;14238;49.496;8.154;2023-02-28T01:37:24;-2.10;99.90
26595;DHT22;14238;49.496;8.154;2023-02-28T01:39:49;-2.10;99.90
26595;DHT22;14238;49.496;8.154;2023-02-28T01:42:15;-2.20;99.90
26595;DHT22;14238;49.496;8.154;2023-02-28T01:45:17;-2.20;99.90
26595;DHT22;14238;49.496;8.154;2023-02-28T01:47:44;-2.20;99.90
26595;DHT22;14238;49.496;8.154;2023-02-28T01:50:15;-2.20;99.90
26595;DHT22;14238;49.496;8.154;2023-02-28T01:52:42;-2.20;99.90
26595;DHT22;14238;49.496;8.154;2023-02-28T01:55:10;-2.20;99.90
26595;DHT22;14238;49.496;8.154;2023-02-28T01:57:42;-2.20;99.90
26595;DHT22;14238;49.496;8.154;2023-02-28T02:00:17;-2.20;99.90
26595;DHT22;14238;49.496;8.154;2023-02-28T02:02:45;-2.30;99.90
26595;DHT22;14238;49.496;8.154;2023-02-28T02:05:18;-2.30;99.90
26595;DHT22;14238;49.496;8.154;2023-02-28T02:07:47;-2.30;99.90
26595;DHT22;14238;49.496;8.154;2023-02-28T02:11:02;-2.40;99.90
26595;DHT22;14238;49.496;8.154;2023-02-28T02:13:19;-2.50;99.90
26595;DHT22;14238;49.496;8.154;2023-02-28T02:16:40;-2.50;99.90
26595;DHT22;14238;49.496;8.154;2023-02-28T02:22:04;-2.50;99.90
26595;DHT22;14238;49.496;8.154;2023-02-28T02:25:00;-2.50;99.90
26595;DHT22;14238;49.496;8.154;2023-02-28T02:35:55;-2.50;99.90
26595;DHT22;14238;49.496;8.154;2023-02-28T02:38:26;-2.50;99.90
26595;DHT22;14238;49.496;8.154;2023-02-28T02:41:12;-2.50;99.90
26595;DHT22;14238;49.496;8.154;2023-02-28T02:44:13;-2.60;99.90
26595;DHT22;14238;49.496;8.154;2023-02-28T02:46:43;-2.60;99.90
26595;DHT22;14238;49.496;8.154;2023-02-28T02:49:15;-2.60;99.90
26595;DHT22;14238;49.496;8.154;2023-02-28T02:51:42;-2.60;99.90
26595;DHT22;14238;49.496;8.154;2023-02-28T02:54:13;-2.60;99.90
26595;DHT22;14238;49.496;8.154;2023-02-28T02:56:42;-2.70;99.90
26595;DHT22;14238;49.496;8.154;2023-02-28T02:59:12;-2.70;99.90
26595;DHT22;14238;49.496;8.154;2023-02-28T03:01:40;-2.70;99.90
26595;DHT22;14238;49.496;8.154;2023-02-28T03:04:13;-2.70;99.90
26595;DHT22;14238;49.496;8.154;2023-02-28T03:06:39;-2.70;99.90
26595;DHT22;14238;49.496;8.154;2023-02-28T03:09:05;-2.70;99.90
26595;DHT22;14238;49.496;8.154;2023-02-28T03:11:32;-2.70;99.90
26595;DHT22;14238;49.496;8.154;2023-02-28T03:16:36;-2.70;99.90
26595;DHT22;14238;49.496;8.154;2023-02-28T03:19:23;-2.70;99.90
26595;DHT22;14238;49.496;8.154;2023-02-28T03:22:00;-2.70;99.90
26595;DHT22;14238;49.496;8.154;2023-02-28T03:24:40;-2.70;99.90
26595;DHT22;14238;49.496;8.154;2023-02-28T03:27:21;-2.80;99.90
26595;DHT22;14238;49.496;8.154;2023-02-28T03:30:11;-2.80;99.90
26595;DHT22;14238;49.496;8.154;2023-02-28T03:35:21;-2.70;99.90
26595;DHT22;14238;49.496;8.154;2023-02-28T03:37:51;-2.70;99.90
26595;DHT22;14238;49.496;8.154;2023-02-28T03:40:22;-2.70;99.90
26595;DHT22;14238;49.496;8.154;2023-02-28T03:42:54;-2.80;99.90
26595;DHT22;14238;49.496;8.154;2023-02-28T03:45:25;-2.80;99.90
26595;DHT22;14238;49.496;8.154;2023-02-28T03:47:59;-2.80;99.90
26595;DHT22;14238;49.496;8.154;2023-02-28T03:50:39;-2.80;99.90
26595;DHT22;14238;49.496;8.154;2023-02-28T03:53:16;-2.80;99.90
26595;DHT22;14238;49.496;8.154;2023-02-28T03:55:52;-2.90;99.90
26595;DHT22;14238;49.496;8.154;2023-02-28T03:58:39;-2.90;99.90
26595;DHT22;14238;49.496;8.154;2023-02-28T04:01:15;-2.90;99.90
26595;DHT22;14238;49.496;8.154;2023-02-28T04:03:42;-2.90;99.90
26595;DHT22;14238;49.496;8.154;2023-02-28T04:06:15;-2.80;99.90
26595;DHT22;14238;49.496;8.154;2023-02-28T04:08:42;-2.90;99.90
26595;DHT22;14238;49.496;8.154;2023-02-28T04:11:18;-2.90;99.90
26595;DHT22;14238;49.496;8.154;2023-02-28T04:13:44;-2.90;99.90
26595;DHT22;14238;49.496;8.154;2023-02-28T04:16:10;-2.90;99.90
26595;DHT22;14238;49.496;8.154;2023-02-28T04:18:39;-2.90;99.90
26595;DHT22;14238;49.496;8.154;2023-02-28T04:21:05;-3.00;99.90
26595;DHT22;14238;49.496;8.154;2023-02-28T04:23:31;-3.00;99.90
26595;DHT22;14238;49.496;8.154;2023-02-28T04:25:57;-3.00;99.90
26595;DHT22;14238;49.496;8.154;2023-02-28T04:28:22;-2.90;99.90
26595;DHT22;14238;49.496;8.154;2023-02-28T04:30:57;-3.00;99.90
26595;DHT22;14238;49.496;8.154;2023-02-28T04:33:22;-3.00;99.90
26595;DHT22;14238;49.496;8.154;2023-02-28T04:35:48;-3.00;99.90
26595;DHT22;14238;49.496;8.154;2023-02-28T04:38:13;-3.00;99.90
26595;DHT22;14238;49.496;8.154;2023-02-28T04:40:39;-3.10;99.90
26595;DHT22;14238;49.496;8.154;2023-02-28T04:43:04;-3.00;99.90
26595;DHT22;14238;49.496;8.154;2023-02-28T04:45:30;-3.10;99.90
26595;DHT22;14238;49.496;8.154;2023-02-28T04:47:57;-3.10;99.90
26595;DHT22;14238;49.496;8.154;2023-02-28T04:50:23;-3.10;99.90
26595;DHT22;14238;49.496;8.154;2023-02-28T04:52:49;-3.20;99.90
26595;DHT22;14238;49.496;8.154;2023-02-28T04:55:14;-3.20;99.90
26595;DHT22;14238;49.496;8.154;2023-02-28T04:57:40;-3.20;99.90
26595;DHT22;14238;49.496;8.154;2023-02-28T05:00:08;-3.20;99.90
26595;DHT22;14238;49.496;8.154;2023-02-28T05:02:37;-3.30;99.90
26595;DHT22;14238;49.496;8.154;2023-02-28T05:05:02;-3.30;99.90
26595;DHT22;14238;49.496;8.154;2023-02-28T05:07:28;-3.20;99.90
26595;DHT22;14238;49.496;8.154;2023-02-28T05:09:54;-3.20;99.90
26595;DHT22;14238;49.496;8.154;2023-02-28T05:12:19;-3.30;99.90
26595;DHT22;14238;49.496;8.154;2023-02-28T05:14:45;-3.20;99.90
26595;DHT22;14238;49.496;8.154;2023-02-28T05:17:11;-3.20;99.90
26595;DHT22;14238;49.496;8.154;2023-02-28T05:19:36;-3.20;99.90
26595;DHT22;14238;49.496;8.154;2023-02-28T05:22:02;-3.20;99.90
26595;DHT22;14238;49.496;8.154;2023-02-28T05:24:27;-3.20;99.90
26595;DHT22;14238;49.496;8.154;2023-02-28T05:26:54;-3.20;99.90
26595;DHT22;14238;49.496;8.154;2023-02-28T05:29:20;-3.20;99.90
26595;DHT22;14238;49.496;8.154;2023-02-28T05:31:46;-3.10;99.90
26595;DHT22;14238;49.496;8.154;2023-02-28T05:34:12;-3.10;99.90
26595;DHT22;14238;49.496;8.154;2023-02-28T05:36:38;-3.10;99.90
26595;DHT22;14238;49.496;8.154;2023-02-28T05:39:06;-3.10;99.90
26595;DHT22;14238;49.496;8.154;2023-02-28T05:41:32;-3.00;99.90
26595;DHT22;14238;49.496;8.154;2023-02-28T05:43:58;-3.00;99.90
26595;DHT22;14238;49.496;8.154;2023-02-28T05:46:25;-2.90;99.90
26595;DHT22;14238;49.496;8.154;2023-02-28T05:48:51;-2.90;99.90
26595;DHT22;14238;49.496;8.154;2023-02-28T05:51:17;-2.90;99.90
26595;DHT22;14238;49.496;8.154;2023-02-28T05:53:43;-2.80;99.90
26595;DHT22;14238;49.496;8.154;2023-02-28T05:56:08;-2.80;99.90
26595;DHT22;14238;49.496;8.154;2023-02-28T05:58:34;-2.80;99.90
26595;DHT22;14238;49.496;8.154;2023-02-28T06:01:01;-2.70;99.90
26595;DHT22;14238;49.496;8.154;2023-02-28T06:03:43;-2.70;99.90
26595;DHT22;14238;49.496;8.154;2023-02-28T06:06:09;-2.70;99.90
26595;DHT22;14238;49.496;8.154;2023-02-28T06:08:34;-2.70;99.90
26595;DHT22;14238;49.496;8.154;2023-02-28T06:11:03;-2.70;99.90
26595;DHT22;14238;49.496;8.154;2023-02-28T06:13:29;-2.70;99.90
26595;DHT22;14238;49.496;8.154;2023-02-28T06:15:54;-2.70;99.90
26595;DHT22;14238;49.496;8.154;2023-02-28T06:18:20;-2.60;99.90
26595;DHT22;14238;49.496;8.154;2023-02-28T06:20:53;-2.60;99.90
26595;DHT22;14238;49.496;8.154;2023-02-28T06:23:20;-2.60;99.90
26595;DHT22;14238;49.496;8.154;2023-02-28T06:25:46;-2.60;99.90
26595;DHT22;14238;49.496;8.154;2023-02-28T06:28:11;-2.60;99.90
26595;DHT22;14238;49.496;8.154;2023-02-28T06:30:38;-2.60;99.90
26595;DHT22;14238;49.496;8.154;2023-02-28T06:33:03;-2.60;99.90
26595;DHT22;14238;49.496;8.154;2023-02-28T06:35:29;-2.50;99.90
26595;DHT22;14238;49.496;8.154;2023-02-28T06:37:54;-2.50;99.90
26595;DHT22;14238;49.496;8.154;2023-02-28T06:40:20;-2.50;99.90
26595;DHT22;14238;49.496;8.154;2023-02-28T06:42:45;-2.50;99.90
26595;DHT22;14238;49.496;8.154;2023-02-28T06:45:11;-2.40;99.90
26595;DHT22;14238;49.496;8.154;2023-02-28T06:47:38;-2.40;99.90
26595;DHT22;14238;49.496;8.154;2023-02-28T06:50:05;-2.40;99.90
26595;DHT22;14238;49.496;8.154;2023-02-28T06:52:31;-2.40;99.90
26595;DHT22;14238;49.496;8.154;2023-02-28T06:54:56;-2.40;99.90
26595;DHT22;14238;49.496;8.154;2023-02-28T06:57:32;-2.40;99.90
26595;DHT22;14238;49.496;8.154;2023-02-28T06:59:59;-2.40;99.90
26595;DHT22;14238;49.496;8.154;2023-02-28T07:02:25;-2.40;99.90
26595;DHT22;14238;49.496;8.154;2023-02-28T07:04:51;-2.40;99.90
26595;DHT22;14238;49.496;8.154;2023-02-28T07:07:16;-2.30;99.90
26595;DHT22;14238;49.496;8.154;2023-02-28T07:09:43;-2.30;99.90
26595;DHT22;14238;49.496;8.154;2023-02-28T07:12:09;-2.20;99.90
26595;DHT22;14238;49.496;8.154;2023-02-28T07:14:36;-2.10;99.90
26595;DHT22;14238;49.496;8.154;2023-02-28T07:17:02;-2.10;99.90
26595;DHT22;14238;49.496;8.154;2023-02-28T07:19:27;-2.00;99.90
26595;DHT22;14238;49.496;8.154;2023-02-28T07:21:53;-2.00;99.90
26595;DHT22;14238;49.496;8.154;2023-02-28T07:24:19;-2.00;99.90
26595;DHT22;14238;49.496;8.154;2023-02-28T07:26:44;-1.90;99.90
26595;DHT22;14238;49.496;8.154;2023-02-28T07:29:10;-1.90;99.90
26595;DHT22;14238;49.496;8.154;2023-02-28T07:31:35;-1.90;99.90
26595;DHT22;14238;49.496;8.154;2023-02-28T07:34:01;-1.90;99.90
26595;DHT22;14238;49.496;8.154;2023-02-28T07:36:28;-1.90;99.90
26595;DHT22;14238;49.496;8.154;2023-02-28T07:38:53;-1.80;99.90
26595;DHT22;14238;49.496;8.154;2023-02-28T07:41:21;-1.80;99.90
26595;DHT22;14238;49.496;8.154;2023-02-28T07:43:47;-1.70;99.90
26595;DHT22;14238;49.496;8.154;2023-02-28T07:46:15;-1.60;99.90
26595;DHT22;14238;49.496;8.154;2023-02-28T07:48:41;-1.60;99.90
26595;DHT22;14238;49.496;8.154;2023-02-28T07:51:07;-1.50;99.90
26595;DHT22;14238;49.496;8.154;2023-02-28T07:53:33;-1.50;99.90
26595;DHT22;14238;49.496;8.154;2023-02-28T07:56:00;-1.50;99.90
26595;DHT22;14238;49.496;8.154;2023-02-28T07:58:27;-1.50;99.90
26595;DHT22;14238;49.496;8.154;2023-02-28T08:00:52;-1.40;99.90
26595;DHT22;14238;49.496;8.154;2023-02-28T08:03:19;-1.30;99.90
26595;DHT22;14238;49.496;8.154;2023-02-28T08:05:45;-1.30;99.90
26595;DHT22;14238;49.496;8.154;2023-02-28T08:08:11;-1.20;99.90
26595;DHT22;14238;49.496;8.154;2023-02-28T08:10:37;-1.10;99.90
26595;DHT22;14238;49.496;8.154;2023-02-28T08:13:03;-1.10;99.90
26595;DHT22;14238;49.496;8.154;2023-02-28T08:15:28;-1.00;99.90
26595;DHT22;14238;49.496;8.154;2023-02-28T08:17:54;-0.90;99.90
26595;DHT22;14238;49.496;8.154;2023-02-28T08:20:22;-0.90;99.90
26595;DHT22;14238;49.496;8.154;2023-02-28T08:22:48;-0.90;99.90
26595;DHT22;14238;49.496;8.154;2023-02-28T08:25:13;-0.80;99.90
26595;DHT22;14238;49.496;8.154;2023-02-28T08:27:39;-0.70;99.90
26595;DHT22;14238;49.496;8.154;2023-02-28T08:30:05;-0.70;99.90
26595;DHT22;14238;49.496;8.154;2023-02-28T08:32:33;-0.60;99.90
26595;DHT22;14238;49.496;8.154;2023-02-28T08:34:58;-0.60;99.90
26595;DHT22;14238;49.496;8.154;2023-02-28T08:37:24;-0.50;99.90
26595;DHT22;14238;49.496;8.154;2023-02-28T08:39:50;-0.50;99.90
26595;DHT22;14238;49.496;8.154;2023-02-28T08:42:16;-0.40;99.90
26595;DHT22;14238;49.496;8.154;2023-02-28T08:44:42;-0.20;99.90
26595;DHT22;14238;49.496;8.154;2023-02-28T08:47:07;0.00;99.90
26595;DHT22;14238;49.496;8.154;2023-02-28T08:49:33;0.10;99.90
26595;DHT22;14238;49.496;8.154;2023-02-28T08:51:59;0.40;99.90
26595;DHT22;14238;49.496;8.154;2023-02-28T08:54:25;0.50;99.90
26595;DHT22;14238;49.496;8.154;2023-02-28T08:56:51;0.70;99.90
26595;DHT22;14238;49.496;8.154;2023-02-28T08:59:16;0.90;99.90
26595;DHT22;14238;49.496;8.154;2023-02-28T09:01:42;1.10;99.90
26595;DHT22;14238;49.496;8.154;2023-02-28T09:04:09;1.00;99.90
26595;DHT22;14238;49.496;8.154;2023-02-28T09:06:36;1.00;99.90
26595;DHT22;14238;49.496;8.154;2023-02-28T09:09:01;0.80;99.90
26595;DHT22;14238;49.496;8.154;2023-02-28T09:11:28;0.90;99.90
26595;DHT22;14238;49.496;8.154;2023-02-28T09:13:54;1.20;99.90
26595;DHT22;14238;49.496;8.154;2023-02-28T09:16:21;1.50;99.90
26595;DHT22;14238;49.496;8.154;2023-02-28T09:18:47;1.50;99.90
26595;DHT22;14238;49.496;8.154;2023-02-28T09:21:15;1.50;99.90
26595;DHT22;14238;49.496;8.154;2023-02-28T09:23:42;1.40;99.90
26595;DHT22;14238;49.496;8.154;2023-02-28T09:26:33;1.40;99.90
26595;DHT22;14238;49.496;8.154;2023-02-28T09:28:59;1.80;99.90
26595;DHT22;14238;49.496;8.154;2023-02-28T09:31:27;2.30;99.90
26595;DHT22;14238;49.496;8.154;2023-02-28T09:33:55;2.80;99.90
26595;DHT22;14238;49.496;8.154;2023-02-28T09:36:23;3.60;99.90
26595;DHT22;14238;49.496;8.154;2023-02-28T09:38:48;4.20;99.90
26595;DHT22;14238;49.496;8.154;2023-02-28T09:41:20;4.50;99.90
26595;DHT22;14238;49.496;8.154;2023-02-28T09:43:59;4.50;99.90
26595;DHT22;14238;49.496;8.154;2023-02-28T09:46:33;5.00;99.90
26595;DHT22;14238;49.496;8.154;2023-02-28T09:49:04;5.70;98.30
26595;DHT22;14238;49.496;8.154;2023-02-28T09:54:22;6.40;97.50
26595;DHT22;14238;49.496;8.154;2023-02-28T10:04:56;6.90;96.40
26595;DHT22;14238;49.496;8.154;2023-02-28T10:07:46;6.90;94.50
26595;DHT22;14238;49.496;8.154;2023-02-28T10:10:29;5.60;95.30
26595;DHT22;14238;49.496;8.154;2023-02-28T10:13:00;5.90;95.70
26595;DHT22;14238;49.496;8.154;2023-02-28T10:15:30;6.60;95.40
26595;DHT22;14238;49.496;8.154;2023-02-28T10:18:18;7.00;95.10
26595;DHT22;14238;49.496;8.154;2023-02-28T10:20:46;6.10;94.60
26595;DHT22;14238;49.496;8.154;2023-02-28T10:23:26;6.00;95.80
26595;DHT22;14238;49.496;8.154;2023-02-28T10:26:10;6.20;94.90
26595;DHT22;14238;49.496;8.154;2023-02-28T10:28:37;6.60;94.80
26595;DHT22;14238;49.496;8.154;2023-02-28T10:31:03;6.40;94.90
26595;DHT22;14238;49.496;8.154;2023-02-28T10:33:33;6.50;94.20
26595;DHT22;14238;49.496;8.154;2023-02-28T10:36:00;6.00;94.30
26595;DHT22;14238;49.496;8.154;2023-02-28T10:38:33;6.70;94.00
26595;DHT22;14238;49.496;8.154;2023-02-28T10:41:11;6.50;94.40
26595;DHT22;14238;49.496;8.154;2023-02-28T10:43:38;7.00;93.90
26595;DHT22;14238;49.496;8.154;2023-02-28T10:46:15;7.30;93.20
26595;DHT22;14238;49.496;8.154;2023-02-28T10:49:21;6.80;92.80
26595;DHT22;14238;49.496;8.154;2023-02-28T10:51:51;6.30;92.70
26595;DHT22;14238;49.496;8.154;2023-02-28T10:54:32;7.10;92.00
26595;DHT22;14238;49.496;8.154;2023-02-28T10:59:32;6.60;92.60
26595;DHT22;14238;49.496;8.154;2023-02-28T11:01:57;6.40;92.20
26595;DHT22;14238;49.496;8.154;2023-02-28T11:07:01;5.00;93.40
26595;DHT22;14238;49.496;8.154;2023-02-28T11:09:32;5.80;94.40
26595;DHT22;14238;49.496;8.154;2023-02-28T11:12:01;6.30;92.70
26595;DHT22;14238;49.496;8.154;2023-02-28T11:14:36;6.20;93.30
26595;DHT22;14238;49.496;8.154;2023-02-28T11:17:21;5.80;93.70
26595;DHT22;14238;49.496;8.154;2023-02-28T11:19:51;7.70;93.20
26595;DHT22;14238;49.496;8.154;2023-02-28T11:22:20;8.60;91.40
26595;DHT22;14238;49.496;8.154;2023-02-28T11:24:51;8.60;90.10
26595;DHT22;14238;49.496;8.154;2023-02-28T11:29:55;7.20;91.50
26595;DHT22;14238;49.496;8.154;2023-02-28T11:32:22;7.40;91.20
26595;DHT22;14238;49.496;8.154;2023-02-28T11:37:28;6.20;92.20
26595;DHT22;14238;49.496;8.154;2023-02-28T11:39:54;6.90;92.10
26595;DHT22;14238;49.496;8.154;2023-02-28T11:45:22;5.50;93.40
26595;DHT22;14238;49.496;8.154;2023-02-28T11:48:01;5.00;93.50
26595;DHT22;14238;49.496;8.154;2023-02-28T11:50:57;5.80;93.90
26595;DHT22;14238;49.496;8.154;2023-02-28T11:53:41;6.10;93.00
26595;DHT22;14238;49.496;8.154;2023-02-28T11:56:21;6.10;93.10
26595;DHT22;14238;49.496;8.154;2023-02-28T11:59:38;5.10;93.40
26595;DHT22;14238;49.496;8.154;2023-02-28T12:02:14;4.60;94.40
26595;DHT22;14238;49.496;8.154;2023-02-28T12:10:29;6.30;93.50
26595;DHT22;14238;49.496;8.154;2023-02-28T12:13:48;7.90;92.30
26595;DHT22;14238;49.496;8.154;2023-02-28T12:16:12;7.20;92.00
26595;DHT22;14238;49.496;8.154;2023-02-28T12:21:57;7.60;92.70
26595;DHT22;14238;49.496;8.154;2023-02-28T12:27:02;5.60;93.00
26595;DHT22;14238;49.496;8.154;2023-02-28T12:29:43;5.70;93.90
26595;DHT22;14238;49.496;8.154;2023-02-28T12:32:34;7.60;93.40
26595;DHT22;14238;49.496;8.154;2023-02-28T12:37:51;6.90;92.90
26595;DHT22;14238;49.496;8.154;2023-02-28T12:40:25;6.40;93.30
26595;DHT22;14238;49.496;8.154;2023-02-28T12:42:59;5.50;93.10
26595;DHT22;14238;49.496;8.154;2023-02-28T12:45:50;6.60;93.10
26595;DHT22;14238;49.496;8.154;2023-02-28T12:48:26;6.00;92.90
26595;DHT22;14238;49.496;8.154;2023-02-28T12:50:52;5.60;93.50
26595;DHT22;14238;49.496;8.154;2023-02-28T12:55:56;5.60;93.80
26595;DHT22;14238;49.496;8.154;2023-02-28T12:58:45;6.80;93.50
26595;DHT22;14238;49.496;8.154;2023-02-28T13:07:16;8.80;90.60
26595;DHT22;14238;49.496;8.154;2023-02-28T13:09:59;7.30;92.40
26595;DHT22;14238;49.496;8.154;2023-02-28T13:12:25;7.60;91.80
26595;DHT22;14238;49.496;8.154;2023-02-28T13:15:12;7.50;91.60
26595;DHT22;14238;49.496;8.154;2023-02-28T13:17:41;7.20;91.80
26595;DHT22;14238;49.496;8.154;2023-02-28T13:20:47;7.20;92.40
26595;DHT22;14238;49.496;8.154;2023-02-28T13:26:11;6.90;93.70
26595;DHT22;14238;49.496;8.154;2023-02-28T13:28:58;6.50;92.00
26595;DHT22;14238;49.496;8.154;2023-02-28T13:31:23;7.00;92.90
26595;DHT22;14238;49.496;8.154;2023-02-28T13:36:29;8.70;92.50
26595;DHT22;14238;49.496;8.154;2023-02-28T13:39:01;8.20;89.80
26595;DHT22;14238;49.496;8.154;2023-02-28T13:44:18;9.30;90.60
26595;DHT22;14238;49.496;8.154;2023-02-28T13:49:27;9.40;89.10
26595;DHT22;14238;49.496;8.154;2023-02-28T13:55:09;7.80;88.30
26595;DHT22;14238;49.496;8.154;2023-02-28T14:06:18;8.50;89.00
26595;DHT22;14238;49.496;8.154;2023-02-28T14:11:35;8.00;90.40
26595;DHT22;14238;49.496;8.154;2023-02-28T14:14:03;7.00;90.90
26595;DHT22;14238;49.496;8.154;2023-02-28T14:16:55;7.50;91.20
26595;DHT22;14238;49.496;8.154;2023-02-28T14:19:29;8.00;90.50
26595;DHT22;14238;49.496;8.154;2023-02-28T14:30:52;7.20;91.30
26595;DHT22;14238;49.496;8.154;2023-02-28T14:36:13;6.10;92.20
26595;DHT22;14238;49.496;8.154;2023-02-28T14:38:47;5.90;92.90
26595;DHT22;14238;49.496;8.154;2023-02-28T14:41:20;6.00;92.70
26595;DHT22;14238;49.496;8.154;2023-02-28T14:43:54;5.70;92.80
26595;DHT22;14238;49.496;8.154;2023-02-28T14:46:23;5.50;93.30
26595;DHT22;14238;49.496;8.154;2023-02-28T14:48:51;5.40;93.60
26595;DHT22;14238;49.496;8.154;2023-02-28T14:51:21;5.60;94.40
26595;DHT22;14238;49.496;8.154;2023-02-28T14:53:50;5.30;93.50
26595;DHT22;14238;49.496;8.154;2023-02-28T14:56:22;5.20;93.60
26595;DHT22;14238;49.496;8.154;2023-02-28T14:58:54;5.40;94.30
26595;DHT22;14238;49.496;8.154;2023-02-28T15:01:22;5.30;94.20
26595;DHT22;14238;49.496;8.154;2023-02-28T15:03:48;5.10;94.00
26595;DHT22;14238;49.496;8.154;2023-02-28T15:06:22;5.00;94.10
26595;DHT22;14238;49.496;8.154;2023-02-28T15:09:07;5.00;94.00
26595;DHT22;14238;49.496;8.154;2023-02-28T15:11:33;5.00;94.40
26595;DHT22;14238;49.496;8.154;2023-02-28T15:14:00;5.00;94.40
26595;DHT22;14238;49.496;8.154;2023-02-28T15:16:32;5.00;94.80
26595;DHT22;14238;49.496;8.154;2023-02-28T15:19:03;4.90;95.20
26595;DHT22;14238;49.496;8.154;2023-02-28T15:21:31;4.90;94.70
26595;DHT22;14238;49.496;8.154;2023-02-28T15:24:01;4.80;94.70
26595;DHT22;14238;49.496;8.154;2023-02-28T15:26:35;4.80;95.50
26595;DHT22;14238;49.496;8.154;2023-02-28T15:29:14;5.10;95.20
26595;DHT22;14238;49.496;8.154;2023-02-28T15:31:44;5.30;94.10
26595;DHT22;14238;49.496;8.154;2023-02-28T15:34:26;5.50;93.90
26595;DHT22;14238;49.496;8.154;2023-02-28T15:36:53;5.30;93.20
26595;DHT22;14238;49.496;8.154;2023-02-28T15:39:24;5.50;93.30
26595;DHT22;14238;49.496;8.154;2023-02-28T15:41:50;5.50;93.40
26595;DHT22;14238;49.496;8.154;2023-02-28T15:44:24;5.60;93.20
26595;DHT22;14238;49.496;8.154;2023-02-28T15:47:01;5.50;93.10
26595;DHT22;14238;49.496;8.154;2023-02-28T15:49:28;5.50;93.90
26595;DHT22;14238;49.496;8.154;2023-02-28T15:51:57;5.40;93.80
26595;DHT22;14238;49.496;8.154;2023-02-28T15:54:28;5.20;93.50
26595;DHT22;14238;49.496;8.154;2023-02-28T15:56:56;4.90;94.00
26595;DHT22;14238;49.496;8.154;2023-02-28T15:59:30;4.60;94.40
26595;DHT22;14238;49.496;8.154;2023-02-28T16:02:15;4.40;94.80
26595;DHT22;14238;49.496;8.154;2023-02-28T16:05:25;4.10;95.30
26595;DHT22;14238;49.496;8.154;2023-02-28T16:07:57;4.00;95.90
26595;DHT22;14238;49.496;8.154;2023-02-28T16:10:25;3.90;96.00
26595;DHT22;14238;49.496;8.154;2023-02-28T16:12:54;3.90;96.40
26595;DHT22;14238;49.496;8.154;2023-02-28T16:15:31;3.80;96.00
26595;DHT22;14238;49.496;8.154;2023-02-28T16:18:00;3.70;96.20
26595;DHT22;14238;49.496;8.154;2023-02-28T16:20:28;3.70;96.30
26595;DHT22;14238;49.496;8.154;2023-02-28T16:22:54;3.70;96.50
26595;DHT22;14238;49.496;8.154;2023-02-28T16:25:24;3.60;96.50
26595;DHT22;14238;49.496;8.154;2023-02-28T16:27:53;3.60;96.40
26595;DHT22;14238;49.496;8.154;2023-02-28T16:30:24;3.50;96.80
26595;DHT22;14238;49.496;8.154;2023-02-28T16:32:51;3.40;97.30
26595;DHT22;14238;49.496;8.154;2023-02-28T16:35:19;3.30;97.40
26595;DHT22;14238;49.496;8.154;2023-02-28T16:37:45;3.30;97.70
26595;DHT22;14238;49.496;8.154;2023-02-28T16:40:19;3.20;97.50
26595;DHT22;14238;49.496;8.154;2023-02-28T16:42:47;3.10;97.70
26595;DHT22;14238;49.496;8.154;2023-02-28T16:45:25;3.00;98.00
26595;DHT22;14238;49.496;8.154;2023-02-28T16:47:52;3.00;98.30
26595;DHT22;14238;49.496;8.154;2023-02-28T16:50:20;2.90;98.50
26595;DHT22;14238;49.496;8.154;2023-02-28T16:52:47;2.70;99.10
26595;DHT22;14238;49.496;8.154;2023-02-28T16:55:13;2.60;99.90
26595;DHT22;14238;49.496;8.154;2023-02-28T16:57:39;2.50;99.90
26595;DHT22;14238;49.496;8.154;2023-02-28T17:00:07;2.40;99.90
26595;DHT22;14238;49.496;8.154;2023-02-28T17:02:33;2.30;99.90
26595;DHT22;14238;49.496;8.154;2023-02-28T17:04:59;2.20;99.90
26595;DHT22;14238;49.496;8.154;2023-02-28T17:07:25;2.10;99.90
26595;DHT22;14238;49.496;8.154;2023-02-28T17:09:50;2.00;99.90
26595;DHT22;14238;49.496;8.154;2023-02-28T17:12:16;2.00;99.90
26595;DHT22;14238;49.496;8.154;2023-02-28T17:14:41;1.80;99.90
26595;DHT22;14238;49.496;8.154;2023-02-28T17:17:09;1.80;99.90
26595;DHT22;14238;49.496;8.154;2023-02-28T17:19:35;1.70;99.90
26595;DHT22;14238;49.496;8.154;2023-02-28T17:22:01;1.60;99.90
26595;DHT22;14238;49.496;8.154;2023-02-28T17:24:28;1.40;99.90
26595;DHT22;14238;49.496;8.154;2023-02-28T17:26:53;1.10;99.90
26595;DHT22;14238;49.496;8.154;2023-02-28T17:29:21;1.00;99.90
26595;DHT22;14238;49.496;8.154;2023-02-28T17:31:47;0.90;99.90
26595;DHT22;14238;49.496;8.154;2023-02-28T17:34:12;0.80;99.90
26595;DHT22;14238;49.496;8.154;2023-02-28T17:36:44;0.60;99.90